Montville, Connecticut
Current Conditions -  °F | °C
As of 11:56 PM on Thursday 30 Oct 2014 (Local Time) from KGON Reporting Station
Clear Clear  
Wind Chill: 33°   Ceiling: Unl
Heat Index: 37°   Visibility: 10mi
Dew Point: 35°   Wind: 5mph
Humidity: 93%   Direction: 350°N
Pressure: 30"   Gusts: NA
Location:  41.45°N, 72.14°W
Report Text: KGON 310356Z AUTO 35004KT 10SM CLR 03/02 A3000 RMK AO2 SLP158 T00280017 TSNO
Loading
Personal Weather Stations






























Interactive Weather Map
Tropical Storm Tracking
New forecast layout! Learn more

10-Day Weather Forecast

Advertisements
Track Severe Weather on mobile